Time;durP1;ratioP1;P1;durP2;ratioP2;P2;SDS_P1;SDS_P2;PMS_P1;PMS_P2;Temp;Humidity;BMP_temperature;BMP_pressure;BME280_temperature;BME280_humidity;BME280_pressure;Samples;Min_cycle;Max_cycle;Signal;HPM_P1;HPM_P2
2022/02/23 00:02:21;;;;;;;20.75;9.33;;;;;;;2.75;70.26;100451.17;1795008;79;21011;-82
2022/02/23 00:04:48;;;;;;;25.05;9.63;;;;;;;2.76;70.27;100450.34;1794739;78;21760;-83
2022/02/23 00:07:15;;;;;;;21.48;10.00;;;;;;;2.76;70.27;100442.55;1794909;79;21062;-83
2022/02/23 00:09:41;;;;;;;19.82;9.48;;;;;;;2.76;70.34;100434.75;1794747;79;21143;-80
2022/02/23 00:12:09;;;;;;;25.70;9.18;;;;;;;2.77;70.39;100433.95;1795065;79;21039;-83
2022/02/23 00:14:35;;;;;;;16.80;8.10;;;;;;;2.77;70.45;100418.36;1795222;79;21054;-83
2022/02/23 00:17:02;;;;;;;20.15;8.73;;;;;;;2.77;70.52;100427.03;1794915;79;21814;-82
2022/02/23 00:19:29;;;;;;;18.32;8.18;;;;;;;2.78;70.58;100417.14;1794837;79;21006;-82
2022/02/23 00:21:55;;;;;;;16.25;7.35;;;;;;;2.80;70.66;100414.20;1795046;79;21491;-82
2022/02/23 00:24:22;;;;;;;16.90;7.10;;;;;;;2.81;70.65;100406.87;1794945;79;21700;-82
2022/02/23 00:26:48;;;;;;;22.95;7.03;;;;;;;2.84;70.74;100407.46;1795426;79;21018;-82
2022/02/23 00:29:15;;;;;;;17.65;6.72;;;;;;;2.83;70.75;100406.96;1794745;79;21800;-81
2022/02/23 00:31:42;;;;;;;16.67;6.55;;;;;;;2.85;70.87;100398.45;1794981;79;20979;-81
2022/02/23 00:34:08;;;;;;;16.85;6.90;;;;;;;2.87;70.91;100394.21;1795078;79;21109;-81
2022/02/23 00:36:35;;;;;;;10.53;5.53;;;;;;;2.92;70.98;100393.13;1795228;79;21003;-82
2022/02/23 00:39:02;;;;;;;14.65;6.78;;;;;;;2.93;70.99;100388.42;1795188;78;21066;-82
2022/02/23 00:41:28;;;;;;;16.15;7.20;;;;;;;2.96;71.05;100386.37;1795194;79;21748;-82
2022/02/23 00:43:55;;;;;;;16.35;6.60;;;;;;;2.98;71.08;100388.64;1795004;78;20983;-82
2022/02/23 00:46:22;;;;;;;15.40;7.15;;;;;;;3.00;71.03;100385.70;1795083;79;21867;-82
2022/02/23 00:48:48;;;;;;;18.92;7.37;;;;;;;3.01;71.06;100374.50;1795111;79;21110;-82
2022/02/23 00:51:15;;;;;;;18.67;7.42;;;;;;;3.02;71.05;100368.47;1795094;79;21121;-82
2022/02/23 00:53:41;;;;;;;16.50;7.25;;;;;;;3.04;71.13;100368.13;1795122;79;21844;-82
2022/02/23 00:56:08;;;;;;;16.75;7.25;;;;;;;3.03;71.11;100358.14;1794689;78;21600;-82
2022/02/23 00:58:35;;;;;;;16.32;6.35;;;;;;;3.04;71.19;100357.73;1794754;79;21564;-82
2022/02/23 01:01:02;;;;;;;20.05;7.62;;;;;;;2.95;71.28;100329.98;1794887;79;21058;-82
2022/02/23 01:03:28;;;;;;;18.75;8.50;;;;;;;3.09;71.39;100346.73;1794978;79;21125;-82
2022/02/23 01:05:55;;;;;;;19.55;7.28;;;;;;;3.11;71.41;100346.40;1794542;79;23010;-82
2022/02/23 01:08:22;;;;;;;18.87;7.08;;;;;;;3.14;71.51;100340.47;1794854;79;21038;-82
2022/02/23 01:10:48;;;;;;;15.38;6.47;;;;;;;3.16;71.51;100340.14;1794674;79;21582;-82
2022/02/23 01:13:15;;;;;;;21.35;8.20;;;;;;;3.17;71.56;100336.70;1756901;81;21031;-82
2022/02/23 01:15:41;;;;;;;16.32;7.08;;;;;;;3.21;71.65;100332.16;1757077;81;21516;-82
2022/02/23 01:18:08;;;;;;;18.92;7.25;;;;;;;3.23;71.69;100326.61;1756928;81;22635;-82
2022/02/23 01:20:35;;;;;;;15.80;6.95;;;;;;;3.24;71.65;100328.80;1756880;81;21086;-82
2022/02/23 01:23:01;;;;;;;16.15;6.85;;;;;;;3.21;71.68;100321.75;1756892;81;21066;-82
2022/02/23 01:25:29;;;;;;;15.72;6.17;;;;;;;3.23;71.77;100319.19;1756879;81;21043;-82
2022/02/23 01:27:56;;;;;;;22.27;6.55;;;;;;;3.26;71.85;100317.63;1756965;81;21080;-82
2022/02/23 01:30:23;;;;;;;17.15;6.35;;;;;;;3.27;71.85;100312.05;1756791;81;22687;-82
2022/02/23 01:32:50;;;;;;;21.82;6.95;;;;;;;3.30;71.95;100310.87;1756758;81;21074;-82
2022/02/23 01:35:16;;;;;;;17.62;6.40;;;;;;;3.33;72.02;100303.64;1757092;81;21117;-82
2022/02/23 01:37:43;;;;;;;16.75;6.83;;;;;;;3.33;72.04;100300.62;1757201;81;21176;-81
2022/02/23 01:40:11;;;;;;;19.27;7.50;;;;;;;3.37;72.15;100296.45;1757052;81;21070;-82
2022/02/23 01:42:38;;;;;;;16.55;6.83;;;;;;;3.40;72.23;100291.41;1757079;81;21768;-82
2022/02/23 01:45:05;;;;;;;17.62;6.53;;;;;;;3.41;72.32;100282.76;1756940;81;21042;-81
2022/02/23 01:47:32;;;;;;;22.55;7.67;;;;;;;3.43;72.40;100274.61;1756941;81;21054;-81
2022/02/23 01:49:58;;;;;;;20.17;7.15;;;;;;;3.44;72.49;100267.30;1756959;81;21098;-82
2022/02/23 01:52:26;;;;;;;20.10;7.20;;;;;;;3.44;72.57;100260.38;1728683;81;37609;-81
2022/02/23 01:54:53;;;;;;;20.48;6.95;;;;;;;3.46;72.71;100252.65;1757154;81;21843;-81
2022/02/23 01:57:21;;;;;;;18.67;6.70;;;;;;;3.46;72.79;100244.42;1757064;81;21175;-82
2022/02/23 01:59:47;;;;;;;22.82;7.42;;;;;;;3.48;72.86;100249.70;1756948;81;21003;-82
2022/02/23 02:02:14;;;;;;;20.82;7.40;;;;;;;3.47;72.95;100244.00;1757004;81;21066;-82
2022/02/23 02:04:41;;;;;;;22.00;7.28;;;;;;;3.48;73.07;100244.08;1757898;80;21505;-82
2022/02/23 02:07:08;;;;;;;17.30;6.85;;;;;;;3.50;73.13;100243.73;1754645;81;21808;-82
2022/02/23 02:09:35;;;;;;;23.87;7.45;;;;;;;3.52;73.19;100239.02;1786098;80;21078;-82
2022/02/23 02:12:01;;;;;;;19.25;6.72;;;;;;;3.52;73.25;100238.60;1785519;80;21094;-81
2022/02/23 02:14:28;;;;;;;22.42;7.40;;;;;;;3.52;73.30;100231.22;1785793;80;21101;-82
2022/02/23 02:16:54;;;;;;;21.87;7.53;;;;;;;3.53;73.41;100231.67;1785659;80;21050;-82
2022/02/23 02:19:21;;;;;;;20.43;7.35;;;;;;;3.53;73.43;100219.97;1754630;81;21801;-81
2022/02/23 02:21:59;;;;;;;20.45;7.83;;;;;;;3.48;73.55;100209.38;1785837;80;21023;-80
2022/02/23 02:24:32;;;;;;;19.35;7.25;;;;;;;3.54;73.67;100217.86;1785810;80;21122;-82
2022/02/23 02:27:00;;;;;;;21.35;7.87;;;;;;;3.54;73.76;100211.36;1785964;80;21016;-82
2022/02/23 02:29:27;;;;;;;23.80;8.13;;;;;;;3.51;73.78;100205.62;1754625;80;21097;-82
2022/02/23 02:31:53;;;;;;;28.02;8.70;;;;;;;3.50;73.89;100199.92;1785796;80;21699;-81
2022/02/23 02:34:20;;;;;;;22.45;7.53;;;;;;;3.49;73.95;100193.83;1785632;80;21144;-81
2022/02/23 02:36:50;;;;;;;22.87;7.70;;;;;;;3.50;74.04;100192.11;1785936;80;21054;-82
2022/02/23 02:39:17;;;;;;;23.47;7.47;;;;;;;3.46;74.07;100187.18;1785668;80;21027;-82
2022/02/23 02:41:44;;;;;;;25.43;8.23;;;;;;;3.45;74.20;100188.02;1751237;81;21057;-82
2022/02/23 02:44:11;;;;;;;19.95;7.55;;;;;;;3.45;74.32;100182.81;1785901;80;21766;-82
2022/02/23 02:46:37;;;;;;;24.45;8.23;;;;;;;3.47;74.43;100188.06;1786064;80;21027;-81
2022/02/23 02:49:04;;;;;;;20.62;8.20;;;;;;;3.46;74.45;100179.37;1786283;79;21051;-82
2022/02/23 02:51:30;;;;;;;16.52;7.58;;;;;;;3.45;74.49;100179.30;1755048;81;21062;-82
2022/02/23 02:53:57;;;;;;;26.95;10.10;;;;;;;3.41;74.49;100176.97;1786217;80;21012;-82
2022/02/23 02:56:24;;;;;;;22.07;8.00;;;;;;;3.39;74.53;100173.84;1751517;81;21761;-82
2022/02/23 02:58:53;;;;;;;26.45;8.35;;;;;;;3.36;74.62;100179.80;1786105;80;21049;-82
2022/02/23 03:01:22;;;;;;;23.42;8.20;;;;;;;3.33;74.69;100174.45;1786081;80;21011;-82
2022/02/23 03:03:49;;;;;;;23.57;7.80;;;;;;;3.29;74.70;100177.33;1755108;81;21141;-82
2022/02/23 03:06:16;;;;;;;18.92;7.97;;;;;;;3.30;74.86;100174.30;1785926;79;21611;-82
2022/02/23 03:08:43;;;;;;;18.50;7.50;;;;;;;3.33;74.98;100176.17;1786502;80;22575;-81
2022/02/23 03:11:09;;;;;;;17.70;7.92;;;;;;;3.30;74.91;100175.22;1786123;80;21071;-82
2022/02/23 03:13:37;;;;;;;22.07;8.58;;;;;;;3.30;75.07;100172.61;1786020;80;21614;-82
2022/02/23 03:16:04;;;;;;;21.82;7.97;;;;;;;3.30;75.05;100171.70;1786238;79;20980;-82
2022/02/23 03:18:31;;;;;;;22.67;7.58;;;;;;;3.30;75.21;100170.02;1785894;80;21607;-81
2022/02/23 03:20:58;;;;;;;19.35;8.18;;;;;;;3.29;75.20;100168.22;1786018;78;21756;-82
2022/02/23 03:23:25;;;;;;;19.82;7.90;;;;;;;3.28;75.25;100163.86;1785796;79;21043;-82
2022/02/23 03:25:51;;;;;;;18.87;7.83;;;;;;;3.29;75.29;100163.44;1785992;80;21027;-82
2022/02/23 03:28:19;;;;;;;17.85;7.17;;;;;;;3.32;75.41;100162.25;1785924;79;21731;-81
2022/02/23 03:30:45;;;;;;;19.92;7.75;;;;;;;3.34;75.45;100162.33;1785942;80;21118;-82
2022/02/23 03:33:12;;;;;;;17.95;7.40;;;;;;;3.34;75.44;100160.64;1785933;79;22673;-82
2022/02/23 03:35:40;;;;;;;19.32;7.95;;;;;;;3.33;75.45;100149.73;1786027;80;21055;-81
2022/02/23 03:38:07;;;;;;;14.85;8.30;;;;;;;3.33;75.43;100155.36;1786110;79;21172;-82
2022/02/23 03:40:33;;;;;;;17.30;7.67;;;;;;;3.34;75.50;100148.94;1785898;80;21234;-81
2022/02/23 03:43:01;;;;;;;15.15;6.65;;;;;;;3.36;75.52;100157.69;1786026;80;21070;-81
2022/02/23 03:45:28;;;;;;;11.85;6.80;;;;;;;3.35;75.54;100155.02;1785856;80;21726;-81
2022/02/23 03:47:54;;;;;;;14.95;7.47;;;;;;;3.33;75.56;100151.05;1786088;79;21062;-82
2022/02/23 03:50:21;;;;;;;16.87;7.58;;;;;;;3.34;75.65;100150.62;1786155;80;21062;-81
2022/02/23 03:52:48;;;;;;;14.15;7.42;;;;;;;3.31;75.62;100151.39;1785968;80;21058;-81
2022/02/23 03:55:14;;;;;;;14.53;7.42;;;;;;;3.32;75.71;100150.55;1785807;79;21095;-81
2022/02/23 03:57:41;;;;;;;16.82;7.33;;;;;;;3.33;75.72;100151.05;1786040;78;21738;-82
2022/02/23 04:00:13;;;;;;;14.95;6.95;;;;;;;3.31;75.73;100150.09;1785725;79;21050;-81
2022/02/23 04:02:40;;;;;;;14.83;7.35;;;;;;;3.30;75.73;100147.91;1785822;80;21161;-81
2022/02/23 04:05:08;;;;;;;12.05;6.22;;;;;;;3.21;75.85;100129.67;1785736;79;21074;-82
2022/02/23 04:07:35;;;;;;;12.43;6.55;;;;;;;3.28;75.89;100145.65;1785460;79;21070;-82
2022/02/23 04:10:01;;;;;;;11.78;6.45;;;;;;;3.28;75.89;100143.44;1785884;79;22046;-81
2022/02/23 04:12:28;;;;;;;15.40;7.60;;;;;;;3.26;75.92;100143.78;1785717;80;21043;-81
2022/02/23 04:14:55;;;;;;;12.93;6.65;;;;;;;3.24;76.07;100143.70;1785986;79;21058;-81
2022/02/23 04:17:21;;;;;;;15.93;6.85;;;;;;;3.24;76.12;100150.20;1785737;80;21550;-81
2022/02/23 04:19:48;;;;;;;10.70;5.58;;;;;;;3.24;76.19;100154.11;1785888;79;21062;-81
2022/02/23 04:22:15;;;;;;;10.68;5.55;;;;;;;3.24;76.19;100149.33;1785716;79;21750;-82
2022/02/23 04:24:41;;;;;;;9.75;5.62;;;;;;;3.24;76.24;100141.52;1786100;80;21004;-82
2022/02/23 04:27:08;;;;;;;9.80;5.85;;;;;;;3.21;76.27;100142.29;1785653;80;21043;-82
2022/02/23 04:29:35;;;;;;;12.03;5.22;;;;;;;3.22;76.47;100142.75;1785870;79;21144;-81
2022/02/23 04:32:02;;;;;;;8.70;4.67;;;;;;;3.23;76.54;100143.25;1785831;80;20984;-82
2022/02/23 04:34:28;;;;;;;9.55;4.83;;;;;;;3.26;76.66;100138.58;1785837;79;21760;-81
2022/02/23 04:36:55;;;;;;;7.65;3.55;;;;;;;3.31;76.77;100138.38;1785916;80;21124;-81
2022/02/23 04:39:21;;;;;;;6.90;3.10;;;;;;;3.36;76.85;100140.78;1785756;80;21043;-81
2022/02/23 04:41:48;;;;;;;4.85;2.10;;;;;;;3.43;77.07;100136.72;1785667;80;21031;-81
2022/02/23 04:44:15;;;;;;;4.25;2.17;;;;;;;3.51;77.23;100145.77;1785820;79;21018;-81
2022/02/23 04:46:41;;;;;;;3.72;1.90;;;;;;;3.58;77.31;100146.48;1766615;80;21750;-81
2022/02/23 04:49:08;;;;;;;3.95;1.77;;;;;;;3.66;77.34;100150.72;1756476;80;21591;-82
2022/02/23 04:51:36;;;;;;;3.42;1.77;;;;;;;3.72;77.37;100151.39;1756555;81;21086;-82
2022/02/23 04:54:03;;;;;;;4.17;1.70;;;;;;;3.79;77.41;100154.35;1782869;78;21086;-82
2022/02/23 04:56:29;;;;;;;2.90;2.10;;;;;;;3.87;77.38;100155.97;1786022;80;21071;-82
2022/02/23 04:58:56;;;;;;;4.47;1.85;;;;;;;3.92;77.35;100159.64;1785924;80;22445;-81
2022/02/23 05:01:23;;;;;;;4.83;1.65;;;;;;;3.96;77.41;100166.78;1785668;80;21353;-80
2022/02/23 05:03:49;;;;;;;6.67;1.70;;;;;;;4.02;77.40;100176.56;1786060;80;21571;-82
2022/02/23 05:06:16;;;;;;;5.95;2.15;;;;;;;4.07;77.44;100175.93;1795807;77;21063;-82
2022/02/23 05:08:43;;;;;;;4.80;1.95;;;;;;;4.14;77.46;100173.15;1819762;78;21342;-82
2022/02/23 05:11:09;;;;;;;9.83;2.67;;;;;;;4.22;77.42;100186.48;1820130;78;22457;-83
2022/02/23 05:13:36;;;;;;;7.37;2.45;;;;;;;4.28;77.41;100182.86;1819954;78;21139;-82
2022/02/23 05:16:04;;;;;;;17.98;2.92;;;;;;;4.34;77.36;100179.61;1790369;78;21050;-83
2022/02/23 05:18:31;;;;;;;13.03;3.72;;;;;;;4.40;77.28;100186.37;1820164;78;20995;-82
2022/02/23 05:20:58;;;;;;;20.72;3.90;;;;;;;4.44;77.21;100189.14;1820181;78;21555;-82
2022/02/23 05:23:25;;;;;;;24.63;4.45;;;;;;;4.51;77.18;100188.98;1819788;77;21757;-83
2022/02/23 05:25:51;;;;;;;14.38;4.15;;;;;;;4.57;77.05;100195.74;1820241;78;20987;-83
2022/02/23 05:28:18;;;;;;;23.60;4.90;;;;;;;4.63;76.91;100190.77;1820295;78;21026;-82
2022/02/23 05:30:45;;;;;;;26.35;5.37;;;;;;;4.68;76.75;100203.58;1820212;78;21623;-85
2022/02/23 05:33:11;;;;;;;24.90;4.97;;;;;;;4.73;76.86;100214.20;1820479;77;20999;-84
2022/02/23 05:35:39;;;;;;;30.08;5.47;;;;;;;4.77;76.59;100217.41;1820435;78;23103;-84
2022/02/23 05:38:06;;;;;;;22.55;5.50;;;;;;;4.80;76.44;100238.36;1820312;78;21030;-84
2022/02/23 05:40:33;;;;;;;26.23;5.40;;;;;;;4.82;76.28;100231.91;1820286;78;22141;-84
2022/02/23 05:43:00;;;;;;;32.35;5.87;;;;;;;4.72;76.09;100219.36;1820216;78;21171;-84
2022/02/23 05:45:26;;;;;;;28.57;8.95;;;;;;;4.73;76.03;100225.94;1820300;78;21105;-84
2022/02/23 05:47:53;;;;;;;27.75;6.70;;;;;;;4.88;75.99;100256.95;1820282;78;21724;-82
2022/02/23 05:50:20;;;;;;;27.37;5.65;;;;;;;4.93;75.89;100259.73;1817500;78;21014;-82
2022/02/23 05:52:46;;;;;;;24.30;5.83;;;;;;;4.96;75.79;100255.95;1762220;80;21071;-83
2022/02/23 05:55:13;;;;;;;21.45;5.37;;;;;;;5.00;75.71;100252.20;1786715;78;21500;-82
2022/02/23 05:57:39;;;;;;;26.07;6.00;;;;;;;5.05;75.62;100262.84;1787450;78;21088;-84
2022/02/23 06:00:08;;;;;;;30.48;5.85;;;;;;;5.08;75.49;100268.58;1787429;80;22446;-86
2022/02/23 06:02:36;;;;;;;34.45;6.47;;;;;;;5.12;75.41;100278.30;1786966;79;21505;-85
2022/02/23 06:05:03;;;;;;;33.92;6.70;;;;;;;5.12;75.32;100289.61;1787236;79;21505;-81
2022/02/23 06:07:30;;;;;;;28.50;6.08;;;;;;;5.14;75.24;100284.04;1786713;78;21475;-82
2022/02/23 06:09:57;;;;;;;30.75;5.50;;;;;;;5.16;75.29;100286.72;1785549;80;21094;-82
2022/02/23 06:12:23;;;;;;;31.10;6.10;;;;;;;5.16;75.19;100284.11;1785982;80;21670;-81
2022/02/23 06:14:51;;;;;;;35.05;6.87;;;;;;;5.17;75.16;100287.20;1785793;80;21458;-81
2022/02/23 06:17:19;;;;;;;27.62;6.67;;;;;;;5.17;75.15;100282.86;1785727;80;21066;-82
2022/02/23 06:19:46;;;;;;;27.35;5.55;;;;;;;5.18;75.13;100299.02;1786067;80;21190;-82
2022/02/23 06:22:12;;;;;;;31.97;5.17;;;;;;;5.20;75.03;100291.22;1786053;80;21102;-82
2022/02/23 06:24:39;;;;;;;29.05;6.55;;;;;;;5.20;75.00;100296.05;1786067;79;22526;-82
2022/02/23 06:27:06;;;;;;;27.17;6.08;;;;;;;5.23;74.95;100302.67;1786219;79;20980;-82
2022/02/23 06:29:32;;;;;;;24.60;5.45;;;;;;;5.26;74.91;100312.36;1786336;80;21603;-82
2022/02/23 06:32:06;;;;;;;34.20;5.95;;;;;;;5.27;74.81;100310.20;1786243;80;21821;-82
2022/02/23 06:34:33;;;;;;;28.07;5.55;;;;;;;5.28;74.77;100309.39;1786468;80;21066;-82
2022/02/23 06:37:02;;;;;;;24.23;5.42;;;;;;;5.30;74.74;100314.67;1786262;79;21738;-82
2022/02/23 06:39:32;;;;;;;20.88;5.05;;;;;;;5.32;74.80;100316.50;1785930;79;21062;-82
2022/02/23 06:41:59;;;;;;;24.55;5.58;;;;;;;5.36;74.71;100325.34;1786146;80;21575;-82
2022/02/23 06:44:26;;;;;;;26.15;5.90;;;;;;;5.38;74.65;100324.98;1766286;80;21048;-82
2022/02/23 06:46:52;;;;;;;19.35;5.20;;;;;;;5.40;74.65;100322.89;1786196;80;20999;-82
2022/02/23 06:49:19;;;;;;;23.62;5.90;;;;;;;5.44;74.60;100327.83;1786021;79;21677;-82
2022/02/23 06:51:47;;;;;;;26.62;5.58;;;;;;;5.48;74.53;100338.89;1786132;80;21058;-82
2022/02/23 06:54:14;;;;;;;32.63;6.33;;;;;;;5.50;74.40;100333.30;1766377;80;21058;-82
2022/02/23 06:56:40;;;;;;;29.77;6.37;;;;;;;5.54;74.36;100340.42;1785976;79;21193;-82
2022/02/23 06:59:07;;;;;;;29.45;6.62;;;;;;;5.56;74.25;100340.06;1786213;80;21114;-82
2022/02/23 07:01:36;;;;;;;30.48;6.65;;;;;;;5.59;74.19;100342.80;1786073;78;22550;-82
2022/02/23 07:04:02;;;;;;;29.72;7.78;;;;;;;5.61;74.04;100342.83;1786145;79;21541;-82
2022/02/23 07:06:29;;;;;;;25.45;5.62;;;;;;;5.62;74.01;100338.98;1788280;79;21058;-82
2022/02/23 07:08:55;;;;;;;26.60;6.25;;;;;;;5.66;73.90;100358.27;1795062;79;21545;-82
2022/02/23 07:11:25;;;;;;;28.38;5.22;;;;;;;5.67;73.85;100350.02;1794667;79;21030;-82
2022/02/23 07:13:51;;;;;;;24.82;5.67;;;;;;;5.70;73.89;100358.85;1795097;79;21771;-82
2022/02/23 07:16:23;;;;;;;32.83;6.53;;;;;;;5.75;73.96;100359.05;1794848;79;21627;-82
2022/02/23 07:18:50;;;;;;;23.80;5.83;;;;;;;5.75;73.88;100353.40;1779824;79;21070;-82
2022/02/23 07:21:18;;;;;;;28.77;6.22;;;;;;;5.80;73.92;100362.30;1794567;79;21131;-82
2022/02/23 07:23:45;;;;;;;25.80;5.92;;;;;;;5.83;73.82;100364.13;1794866;79;21706;-82
2022/02/23 07:26:12;;;;;;;41.00;14.15;;;;;;;5.88;73.80;100367.81;1794719;79;22509;-82
2022/02/23 07:28:39;;;;;;;25.27;6.12;;;;;;;5.92;73.66;100368.83;1794736;79;21085;-81
2022/02/23 07:31:07;;;;;;;28.45;6.15;;;;;;;5.97;73.49;100372.11;1794630;79;21062;-82
2022/02/23 07:33:36;;;;;;;29.42;6.58;;;;;;;6.05;73.31;100372.83;1794705;79;21101;-82
2022/02/23 07:36:03;;;;;;;22.55;5.58;;;;;;;6.11;73.34;100375.66;1794216;79;21066;-82
2022/02/23 07:38:30;;;;;;;28.77;5.60;;;;;;;6.18;73.20;100388.12;1794656;79;21718;-83
2022/02/23 07:40:57;;;;;;;20.02;5.25;;;;;;;6.26;72.94;100378.83;1794847;79;21113;-82
2022/02/23 07:43:23;;;;;;;20.45;4.97;;;;;;;6.31;72.64;100389.03;1794844;79;21580;-82
2022/02/23 07:45:53;;;;;;;26.40;5.08;;;;;;;6.37;72.35;100393.59;1794745;79;21047;-80
2022/02/23 07:48:19;;;;;;;22.55;5.00;;;;;;;6.43;72.26;100395.99;1794646;79;21062;-81
2022/02/23 07:50:45;;;;;;;25.00;5.47;;;;;;;6.50;72.05;100401.05;1794815;79;21783;-82
2022/02/23 07:53:12;;;;;;;20.30;4.62;;;;;;;6.55;71.90;100403.80;1794743;78;21077;-81
2022/02/23 07:55:41;;;;;;;19.85;4.58;;;;;;;6.55;71.46;100407.34;1794904;79;21066;-81
2022/02/23 07:58:07;;;;;;;17.35;4.17;;;;;;;6.56;71.42;100418.25;1794777;78;21051;-81
2022/02/23 08:00:33;;;;;;;21.52;4.50;;;;;;;6.56;71.23;100413.45;1794915;79;21008;-81
2022/02/23 08:03:00;;;;;;;25.62;5.53;;;;;;;6.56;71.15;100410.41;1794948;79;21705;-81
2022/02/23 08:05:28;;;;;;;18.23;4.17;;;;;;;6.59;71.14;100417.48;1794974;79;21019;-81
2022/02/23 08:07:55;;;;;;;21.20;5.20;;;;;;;6.58;70.79;100431.38;1788210;79;21066;-81
2022/02/23 08:10:26;;;;;;;19.37;4.25;;;;;;;6.48;70.78;100426.67;1785681;80;21059;-81
2022/02/23 08:12:55;;;;;;;21.40;5.03;;;;;;;6.52;70.42;100439.02;1785484;80;21031;-81
2022/02/23 08:20:52;;;;;;;21.80;4.60;;;;;;;6.40;70.21;100454.73;1785588;80;21062;-81
2022/02/23 08:23:19;;;;;;;16.70;3.75;;;;;;;6.39;70.43;100466.43;1785638;80;21130;-81
2022/02/23 08:25:45;;;;;;;18.73;4.83;;;;;;;6.41;70.26;100468.69;1785915;79;21098;-81
2022/02/23 08:28:12;;;;;;;18.25;4.55;;;;;;;6.45;70.30;100471.88;1785644;79;21737;-81
2022/02/23 08:30:39;;;;;;;15.60;5.40;;;;;;;6.50;70.09;100470.76;1785759;79;21033;-81
2022/02/23 08:33:05;;;;;;;21.37;5.10;;;;;;;6.47;69.84;100474.13;1785582;80;21067;-81
2022/02/23 08:35:32;;;;;;;19.02;4.40;;;;;;;6.46;69.83;100484.53;1785553;79;21062;-81
2022/02/23 08:37:59;;;;;;;21.52;4.25;;;;;;;6.47;69.91;100492.86;1785773;80;21070;-81
2022/02/23 08:40:30;;;;;;;22.35;4.85;;;;;;;6.52;69.77;100497.42;1785599;80;21917;-81
2022/02/23 08:42:54;;;;;;;13.68;4.10;;;;;;;6.55;69.57;100501.48;1784623;79;21501;-81
2022/02/23 08:45:21;;;;;;;16.02;3.87;;;;;;;6.61;69.50;100498.19;1785902;80;21203;-81
2022/02/23 08:47:48;;;;;;;21.27;4.80;;;;;;;6.71;69.43;100507.27;1785866;80;21147;-81
2022/02/23 08:50:14;;;;;;;15.60;3.75;;;;;;;6.69;69.03;100509.81;1785709;80;21074;-81
2022/02/23 08:52:41;;;;;;;23.40;5.10;;;;;;;6.68;69.10;100496.67;1785971;80;22601;-81
2022/02/23 08:55:09;;;;;;;21.80;4.22;;;;;;;6.65;68.80;100527.55;1785849;79;21529;-81
2022/02/23 08:57:36;;;;;;;16.12;4.58;;;;;;;6.60;68.63;100514.70;1785741;80;21739;-81
2022/02/23 09:00:04;;;;;;;18.02;4.75;;;;;;;6.55;68.58;100522.39;1785640;80;21023;-81
2022/02/23 09:02:31;;;;;;;15.78;3.83;;;;;;;6.51;68.70;100520.47;1785625;80;21551;-81
2022/02/23 09:04:57;;;;;;;13.55;4.08;;;;;;;6.51;68.71;100537.47;1785750;80;21795;-82
2022/02/23 09:07:24;;;;;;;19.20;4.33;;;;;;;6.48;68.69;100528.22;1785730;79;21058;-81
2022/02/23 09:09:51;;;;;;;17.20;3.83;;;;;;;6.50;68.73;100529.17;1785592;80;21564;-81
2022/02/23 09:12:19;;;;;;;17.05;4.37;;;;;;;6.50;68.77;100532.20;1785704;79;21333;-81
2022/02/23 09:14:46;;;;;;;19.60;4.30;;;;;;;6.49;68.53;100521.26;1785873;80;21739;-82
2022/02/23 09:17:12;;;;;;;17.67;3.92;;;;;;;6.47;68.70;100539.92;1785817;80;21739;-82
2022/02/23 09:19:39;;;;;;;18.98;4.40;;;;;;;6.38;68.80;100547.91;1785730;78;21030;-82
2022/02/23 09:22:05;;;;;;;19.55;4.97;;;;;;;6.38;69.09;100549.20;1785885;79;21003;-82
2022/02/23 09:24:32;;;;;;;19.40;4.17;;;;;;;6.39;69.10;100539.63;1785705;80;21109;-82
2022/02/23 09:27:01;;;;;;;14.70;5.45;;;;;;;6.40;68.92;100567.15;1786046;79;21086;-82
2022/02/23 09:29:27;;;;;;;17.45;3.60;;;;;;;6.39;69.09;100554.89;1785944;80;21841;-82
2022/02/23 09:31:54;;;;;;;20.30;4.62;;;;;;;6.38;69.10;100567.90;1786026;79;21202;-82
2022/02/23 09:34:23;;;;;;;14.60;3.47;;;;;;;6.30;69.11;100562.80;1785793;80;21074;-82
2022/02/23 09:36:51;;;;;;;18.48;4.47;;;;;;;6.24;69.33;100579.13;1786038;79;21054;-82
2022/02/23 09:39:19;;;;;;;16.57;4.33;;;;;;;6.28;69.45;100564.47;1785860;80;21117;-82
2022/02/23 09:41:46;;;;;;;15.75;3.58;;;;;;;6.15;69.31;100549.59;1786022;79;21678;-82
2022/02/23 09:44:17;;;;;;;16.95;4.45;;;;;;;6.38;69.20;100580.97;1785867;80;21086;-82
2022/02/23 09:46:47;;;;;;;21.93;4.55;;;;;;;6.38;69.06;100582.28;1786057;80;21171;-82
2022/02/23 09:49:13;;;;;;;13.70;4.05;;;;;;;6.37;69.20;100585.32;1785715;80;21039;-82
2022/02/23 09:51:40;;;;;;;15.68;4.70;;;;;;;6.38;69.22;100588.81;1785901;78;21031;-82
2022/02/23 09:54:07;;;;;;;15.78;4.15;;;;;;;6.43;69.22;100599.05;1785739;80;21789;-82
2022/02/23 09:56:34;;;;;;;14.75;4.65;;;;;;;6.46;68.93;100609.64;1785647;80;21094;-82
2022/02/23 09:59:01;;;;;;;21.77;3.98;;;;;;;6.46;68.88;100628.33;1785641;80;21054;-81
2022/02/23 10:01:27;;;;;;;21.52;4.17;;;;;;;6.41;68.65;100613.78;1785517;80;21058;-82
2022/02/23 10:03:54;;;;;;;11.12;3.22;;;;;;;6.40;68.62;100619.83;1785846;80;21098;-83
2022/02/23 10:06:30;;;;;;;19.00;4.35;;;;;;;6.48;69.01;100621.47;1785770;80;22395;-82
2022/02/23 10:09:08;;;;;;;18.75;4.22;;;;;;;6.50;68.74;100630.27;1785406;79;21034;-82
2022/02/23 10:11:36;;;;;;;16.27;3.92;;;;;;;6.57;68.62;100641.45;1785397;80;21062;-81
2022/02/23 10:14:03;;;;;;;18.05;4.42;;;;;;;6.59;68.58;100652.44;1785605;80;21058;-82
2022/02/23 10:16:35;;;;;;;20.65;4.55;;;;;;;6.61;68.42;100645.53;1785692;79;21047;-83
2022/02/23 10:19:17;;;;;;;16.02;4.05;;;;;;;6.63;68.08;100652.56;1766127;80;21820;-82
2022/02/23 10:21:52;;;;;;;14.25;3.70;;;;;;;6.55;68.04;100676.69;1782340;80;21082;-82
2022/02/23 10:24:22;;;;;;;17.20;4.20;;;;;;;6.48;68.01;100648.50;1785591;80;21075;-82
2022/02/23 10:27:08;;;;;;;18.20;4.05;;;;;;;6.53;68.17;100683.58;1785648;80;21161;-82
2022/02/23 10:29:50;;;;;;;19.95;4.28;;;;;;;6.56;68.00;100668.41;1785802;80;21579;-82
2022/02/23 10:32:17;;;;;;;23.35;4.67;;;;;;;6.60;67.78;100676.85;1785620;80;21280;-80
2022/02/23 10:34:45;;;;;;;20.17;3.92;;;;;;;6.64;67.53;100672.64;1785999;80;21337;-81
2022/02/23 10:37:17;;;;;;;14.60;3.90;;;;;;;6.70;67.83;100682.94;1785848;80;21544;-81
2022/02/23 10:39:49;;;;;;;22.02;4.42;;;;;;;6.77;67.38;100673.16;1785811;80;21703;-80
2022/02/23 10:42:19;;;;;;;18.82;3.47;;;;;;;6.80;67.39;100667.19;1785888;80;21126;-81
2022/02/23 10:44:48;;;;;;;14.68;3.62;;;;;;;6.88;67.10;100676.21;1785836;80;21763;-81
2022/02/23 10:47:26;;;;;;;17.12;4.55;;;;;;;6.96;67.15;100690.89;1785716;80;21074;-81
2022/02/23 10:50:07;;;;;;;15.20;4.33;;;;;;;7.08;66.71;100705.77;1785967;80;21265;-81
2022/02/23 10:52:40;;;;;;;17.05;4.25;;;;;;;7.23;66.58;100710.70;1785794;80;21757;-81
2022/02/23 10:55:22;;;;;;;17.30;4.15;;;;;;;7.39;66.47;100709.14;1785540;80;21622;-81
2022/02/23 10:57:58;;;;;;;10.58;3.37;;;;;;;7.44;66.12;100726.31;1785806;80;21760;-81
2022/02/23 11:00:30;;;;;;;17.55;4.00;;;;;;;7.40;65.50;100722.69;1783987;80;21007;-81
2022/02/23 11:02:57;;;;;;;15.15;4.05;;;;;;;7.18;65.82;100682.14;1785440;80;21008;-81
2022/02/23 11:05:25;;;;;;;18.15;4.53;;;;;;;7.35;65.54;100739.06;1785906;80;21070;-81
2022/02/23 11:07:54;;;;;;;13.53;3.65;;;;;;;7.23;65.46;100717.25;1788676;79;21209;-81
2022/02/23 11:10:22;;;;;;;13.00;3.55;;;;;;;7.13;65.61;100751.74;1794994;79;21782;-81
2022/02/23 11:12:54;;;;;;;14.15;3.55;;;;;;;7.03;65.51;100755.73;1794584;78;21646;-81
2022/02/23 11:15:24;;;;;;;13.35;4.47;;;;;;;6.95;65.39;100754.12;1757023;81;21082;-81
2022/02/23 11:17:55;;;;;;;16.67;4.15;;;;;;;6.90;65.63;100773.97;1756918;81;21444;-80
2022/02/23 11:20:29;;;;;;;17.82;3.87;;;;;;;6.93;65.94;100772.80;1756875;81;21869;-80
2022/02/23 11:22:59;;;;;;;16.12;3.62;;;;;;;6.94;65.33;100785.03;1756794;81;21847;-81
2022/02/23 11:25:27;;;;;;;14.60;3.92;;;;;;;6.91;65.74;100786.23;1756850;81;21620;-81
2022/02/23 11:28:01;;;;;;;12.88;3.60;;;;;;;6.93;65.78;100791.12;1756984;81;21044;-80
2022/02/23 11:30:29;;;;;;;17.15;4.55;;;;;;;6.89;65.26;100794.84;1730064;81;22121;-81
2022/02/23 11:32:55;;;;;;;15.90;4.47;;;;;;;6.88;65.61;100819.23;1757007;81;21679;-81
2022/02/23 11:35:48;;;;;;;13.43;4.12;;;;;;;6.94;65.60;100809.01;1756952;81;21797;-81